X  Schließen METAR Luftfahrt Wetterdaten        EDDE Erfurt
Temperatur
6°C Temperatur
3°C Taupunkt
81% Feuchtigkeit



Wind
4 km/h
2 MPS
1 M/S
2 KTS



-1°
VRB
Aktuelle Wetterlage

Mostly Cloudy Meistens bewölkt
Luftdruck 1022 (hPa) - 30.18 (inHg)
Sichtweite 30 (Meile) - 48 (Km)
Flughafen
Flughafen Code EDDE

Position : Erfurt
Entfernung: 25 (Km)

Metar:
METAR EDDE 161950Z VRB02KT 9999 BKN040 06/03 Q1021 NOSIG

Zeit: 16.10.2021 21:50 CEST